Aérodrome :
LOGIN :

S'inscrire | Disclaimer

   EN    FR    IT 

 










Légende :    VFR   VFR Marginal   IFR   IFR Intensif   IFR Très Intensif
Visi : 
Plafond : 
>= 8 km
>= 3000ft
5 à 8 km
1000 à 3000 ft
1500m à 5 km
500 à 1000 ft
800 à 1500m
200 à 500 ft
< 800m
< 200 ft
Symboles :   Orages  Brouillard  Fortes neiges  Fortes précipitations  Vent > 20 kt
SIGMETs :   Divers  Orages  Givrage  Turbulence  Onde Orograph.  Cendres Volcan.






- Altitude de l'aérodrome : 489 ft
- Code IATA : GDN


EPGD - Gdansk

DERNIER METAR :
  • 221930Z 15014KT 9999 OVC009 02/M00 Q1018

METARs EXPIRÉS :
  • 221900Z 15014KT 9999 OVC009 02/00 Q1018
  • 221830Z 15015KT 9999 OVC008 02/01 Q1018
  • 221800Z 14014KT 9999 OVC008 02/01 Q1018
  • 221730Z 14013KT 9999 OVC008 02/01 Q1018

TAF TAF EPGD
Valide du 22 à 18h jusqu'au 23 à 18h UTC


221730Z 2218/2318 14015KT 9999 BKN010
PROB40
TEMPO 2220/2306 BKN007
BECMG 2307/2310 BKN015



MET'MAP, la Météo Aéronautique d'un coup d'oeil ! - Copyright ORBIFLY Décembre 2007 - Disclaimer

ORBIFLY MET'MAP TEAM :

Programmation & Développement : Alexandra Zaïnal
Conception & Développement : Baudouin d'Aumeries
Co-Programmation & Développement : Marc-Olivier Méhu
Soutien technique & logistique : Manuel Goepfert

Contact : metmap@orbifly.com




SOURCES & CREDITS :

   NOAA